Meteorología y climatología de Navarra
Datos de la estación - Meteo Navarra

Estación de Yesa GN

Altitud 487 m.


Datos desde el 11/10/2018 hasta el 12/10/2018 en horario solar
Los datos son PROVISIONALES

Anterior Página 1 de 1 Siguiente Descargar: Formato para Excel 2000 o superior   Formato csv   Formato para OpenOffice Calc
Fecha Temperatura Humedad relativa Radiación global Insolación Precipitación Velocidad viento 10 m Velocidad viento 10 m Dirección viento 10 m
ºC % W/m² s l/m² m/s km/h º
11/10/2018 0:00 15.8 79 0.0 0 0.0 3.9 14.2 91
11/10/2018 0:10 15.8 79 0.0 0 0.0 3.2 11.7 94
11/10/2018 0:20 16.0 79 0.0 0 0.0 3.7 13.3 104
11/10/2018 0:30 16.2 78 0.0 0 0.0 3.6 12.8 110
11/10/2018 0:40 16.3 77 0.0 0 0.0 4.0 14.4 113
11/10/2018 0:50 16.4 76 0.0 0 0.0 4.1 14.8 110
11/10/2018 1:00 16.4 75 0.0 0 0.0 3.6 13.1 114
11/10/2018 1:10 16.4 75 0.0 0 0.0 3.8 13.7 107
11/10/2018 1:20 16.4 76 0.0 0 0.0 3.3 11.9 87
11/10/2018 1:30 16.2 76 0.0 0 0.0 3.7 13.2 98
11/10/2018 1:40 16.2 77 0.0 0 0.0 3.7 13.5 99
11/10/2018 1:50 16.3 76 0.0 0 0.0 3.9 13.9 106
11/10/2018 2:00 16.3 75 0.0 0 0.0 4.3 15.5 111
11/10/2018 2:10 16.4 74 0.0 0 0.0 3.6 12.8 111
11/10/2018 2:20 16.5 74 0.0 0 0.0 4.3 15.4 112
11/10/2018 2:30 16.6 73 0.0 0 0.0 4.0 14.3 111
11/10/2018 2:40 16.6 72 0.0 0 0.0 3.7 13.1 119
11/10/2018 2:50 16.7 72 0.0 0 0.0 3.8 13.8 113
11/10/2018 3:00 16.6 71 0.0 0 0.0 3.9 14.2 113
11/10/2018 3:10 16.7 71 0.0 0 0.0 3.4 12.1 111
11/10/2018 3:20 16.8 70 0.0 0 0.0 3.5 12.5 109
11/10/2018 3:30 16.8 71 0.0 0 0.0 3.6 13.0 111
11/10/2018 3:40 16.7 71 0.0 0 0.0 4.2 15.1 106
11/10/2018 3:50 16.5 73 0.0 0 0.0 3.6 13.1 98
11/10/2018 4:00 16.3 74 0.0 0 0.0 3.9 14.0 101
11/10/2018 4:10 16.4 74 0.0 0 0.0 3.6 13.1 103
11/10/2018 4:20 16.4 74 0.0 0 0.0 3.4 12.3 99
11/10/2018 4:30 16.3 75 0.0 0 0.0 3.7 13.4 96
11/10/2018 4:40 16.1 75 0.0 0 0.0 3.3 11.9 95
11/10/2018 4:50 16.0 75 0.0 0 0.0 3.7 13.5 95
11/10/2018 5:00 16.1 75 0.0 0 0.0 3.2 11.4 103
11/10/2018 5:10 16.2 74 0.0 0 0.0 3.7 13.2 110
11/10/2018 5:20 16.3 73 0.0 0 0.0 2.2 7.9 112
11/10/2018 5:30 16.2 74 0.0 0 0.0 2.6 9.3 116
11/10/2018 5:40 16.1 74 0.0 0 0.0 1.7 6.0 110
11/10/2018 5:50 16.1 74 0.0 0 0.0 2.7 9.8 100
11/10/2018 6:00 15.9 76 0.0 0 0.0 2.8 10.2 93
11/10/2018 6:10 15.8 76 0.0 0 0.0 3.5 12.6 91
11/10/2018 6:20 15.9 76 0.0 0 0.0 4.1 14.9 96
11/10/2018 6:30 15.9 76 13.8 18 0.0 4.2 15.2 98
11/10/2018 6:40 15.8 76 48.7 600 0.0 4.2 15.0 99
11/10/2018 6:50 15.9 76 76.7 600 0.0 4.1 14.7 98
11/10/2018 7:00 16.2 76 81.7 600 0.0 3.0 10.8 90
11/10/2018 7:10 16.1 76 65.2 64 0.0 2.4 8.7 80
11/10/2018 7:20 16.0 77 62.1 30 0.0 2.4 8.5 71
11/10/2018 7:30 15.9 78 71.1 0 0.0 2.2 7.9 72
11/10/2018 7:40 16.1 77 87.1 0 0.0 2.4 8.7 101
11/10/2018 7:50 16.6 74 142.1 378 0.0 3.5 12.6 100
11/10/2018 8:00 17.3 71 116.0 96 0.0 3.2 11.4 110
11/10/2018 8:10 17.6 70 77.1 0 0.0 3.3 11.9 110
11/10/2018 8:20 17.6 71 114.4 0 0.0 2.6 9.3 100
11/10/2018 8:30 17.5 72 124.1 0 0.0 3.4 12.4 103
11/10/2018 8:40 17.6 71 139.0 0 0.0 3.1 11.0 112
11/10/2018 8:50 17.8 70 181.4 38 0.0 3.2 11.5 116
11/10/2018 9:00 18.1 70 252.1 600 0.0 3.5 12.6 106
11/10/2018 9:10 18.3 69 277.0 398 0.0 3.2 11.3 113
11/10/2018 9:20 18.8 68 371.0 600 0.0 3.6 13.0 96
11/10/2018 9:30 19.4 65 413.9 420 0.0 4.0 14.3 96
11/10/2018 9:40 19.9 63 526.0 588 0.0 3.7 13.2 83
11/10/2018 9:50 20.5 61 506.2 548 0.0 4.1 14.9 87
11/10/2018 10:00 20.5 60 313.0 218 0.0 4.2 15.2 85
11/10/2018 10:10 20.3 61 470.8 364 0.0 4.4 15.7 79
11/10/2018 10:20 21.5 58 766.5 600 0.0 4.1 14.8 88
11/10/2018 10:30 22.0 56 668.2 600 0.0 3.0 10.9 125
11/10/2018 10:40 22.3 55 746.4 600 0.0 3.0 10.9 122
11/10/2018 10:50 22.4 54 432.7 332 0.0 2.9 10.6 104
11/10/2018 11:00 21.5 57 73.6 0 0.0 3.5 12.6 121
11/10/2018 11:10 21.1 57 59.6 0 0.0 3.0 10.9 122
11/10/2018 11:20 21.0 57 63.3 0 0.0 3.6 12.9 132
11/10/2018 11:30 20.6 61 39.7 0 0.2 2.5 8.9 123
11/10/2018 11:40 19.7 67 37.2 0 0.1 1.6 5.8 96
11/10/2018 11:50 19.3 69 30.5 0 0.1 1.4 5.0 100
11/10/2018 12:00 19.1 70 53.6 0 0.0 1.0 3.4 95
11/10/2018 12:10 19.1 74 126.9 0 0.2 0.2 0.8 123
11/10/2018 12:20 19.0 74 134.7 0 0.0 2.0 7.2 101
11/10/2018 12:30 18.8 75 184.9 36 0.0 1.7 6.0 109
11/10/2018 12:40 19.3 74 287.6 152 0.0 1.2 4.2 107
11/10/2018 12:50 19.4 73 108.4 0 0.0 1.0 3.6 111
11/10/2018 13:00 19.1 74 115.2 0 0.0 2.4 8.6 103
11/10/2018 13:10 19.1 73 96.7 0 0.0 2.3 8.2 102
11/10/2018 13:20 19.1 73 68.7 0 0.0 2.1 7.5 98
11/10/2018 13:30 19.2 73 78.9 0 0.0 1.7 6.2 118
11/10/2018 13:40 19.3 72 130.0 0 0.0 1.9 6.9 117
11/10/2018 13:50 19.9 70 411.5 528 0.0 2.1 7.4 121
11/10/2018 14:00 20.6 66 415.3 504 0.0 2.3 8.4 113
11/10/2018 14:10 21.1 64 501.3 418 0.0 2.2 7.7 128
11/10/2018 14:20 21.0 65 110.2 0 0.0 2.2 7.8 104
11/10/2018 14:30 20.7 65 70.4 0 0.0 2.0 7.2 112
11/10/2018 14:40 20.7 64 90.0 0 0.0 2.1 7.6 115
11/10/2018 14:50 21.2 59 130.7 0 0.0 3.4 12.3 102
11/10/2018 15:00 21.5 58 120.1 0 0.0 2.2 7.8 117
11/10/2018 15:10 21.7 58 147.2 0 0.0 1.3 4.6 133
11/10/2018 15:20 21.7 59 84.9 0 0.0 2.7 9.8 90
11/10/2018 15:30 21.6 58 69.1 0 0.0 2.1 7.7 134
11/10/2018 15:40 21.5 59 62.1 0 0.0 3.3 11.7 103
11/10/2018 15:50 21.6 59 30.6 0 0.0 3.0 10.9 105
11/10/2018 16:00 21.5 59 24.6 0 0.0 2.9 10.3 109
11/10/2018 16:10 21.3 60 9.0 0 0.0 2.7 9.9 104
11/10/2018 16:20 21.2 61 15.1 0 0.0 2.4 8.5 123
11/10/2018 16:30 20.9 63 33.9 0 0.0 2.7 9.8 102
11/10/2018 16:40 20.8 64 9.4 0 0.0 2.0 7.3 121
11/10/2018 16:50 20.4 67 2.3 0 0.0 2.2 8.0 84
11/10/2018 17:00 20.2 67 1.3 0 0.0 2.9 10.3 95
11/10/2018 17:10 20.2 67 0.0 0 0.0 1.9 6.9 89
11/10/2018 17:20 20.3 66 0.0 0 0.0 1.4 5.1 109
11/10/2018 17:30 20.0 68 0.0 0 0.0 1.9 6.7 107
11/10/2018 17:40 19.8 69 0.0 0 0.0 3.1 11.1 96
11/10/2018 17:50 19.7 69 0.0 0 0.0 2.8 10.2 96
11/10/2018 18:00 19.5 70 0.0 0 0.0 2.8 10.2 97
11/10/2018 18:10 19.6 70 0.0 0 0.0 3.0 10.8 97
11/10/2018 18:20 19.6 69 0.0 0 0.0 3.0 10.9 92
11/10/2018 18:30 19.7 68 0.0 0 0.0 3.4 12.4 98
11/10/2018 18:40 19.7 68 0.0 0 0.0 3.6 12.9 98
11/10/2018 18:50 19.6 69 0.0 0 0.0 3.3 11.7 98
11/10/2018 19:00 19.7 68 0.0 0 0.0 3.9 14.0 101
11/10/2018 19:10 19.7 68 0.0 0 0.0 3.6 12.9 92
11/10/2018 19:20 19.5 69 0.0 0 0.0 3.3 12.0 91
11/10/2018 19:30 19.5 69 0.0 0 0.0 3.2 11.4 91
11/10/2018 19:40 19.3 71 0.0 0 0.0 2.8 10.0 91
11/10/2018 19:50 18.7 77 0.0 0 0.7 2.2 8.1 65
11/10/2018 20:00 17.5 84 0.0 0 0.0 2.2 8.0 76
11/10/2018 20:10 17.3 85 0.0 0 0.0 2.2 7.8 73
11/10/2018 20:20 17.4 85 0.0 0 0.0 2.3 8.2 78
11/10/2018 20:30 17.6 82 0.0 0 0.0 2.8 9.9 72
11/10/2018 20:40 18.0 79 0.0 0 0.0 3.4 12.2 88
11/10/2018 20:50 18.4 76 0.0 0 0.0 2.7 9.9 87
11/10/2018 21:00 18.6 75 0.0 0 0.0 3.2 11.6 97
11/10/2018 21:10 18.8 73 0.0 0 0.0 3.9 13.9 100
11/10/2018 21:20 18.8 73 0.0 0 0.0 3.4 12.3 95
11/10/2018 21:30 18.8 73 0.0 0 0.0 3.9 14.1 97
11/10/2018 21:40 18.9 72 0.0 0 0.0 2.9 10.6 95
11/10/2018 21:50 18.8 74 0.0 0 0.0 1.9 6.7 89
11/10/2018 22:00 18.7 74 0.0 0 0.0 2.1 7.7 89
11/10/2018 22:10 18.6 75 0.0 0 0.0 1.9 6.9 85
11/10/2018 22:20 18.6 74 0.0 0 0.0 2.0 7.0 85
11/10/2018 22:30 18.7 74 0.0 0 0.0 1.7 6.1 100
11/10/2018 22:40 18.8 73 0.0 0 0.0 1.5 5.2 91
11/10/2018 22:50 18.8 74 0.0 0 0.0 1.1 3.9 84
11/10/2018 23:00 18.8 73 0.0 0 0.0 1.5 5.4 103
11/10/2018 23:10 18.9 73 0.0 0 0.0 1.6 5.9 86
11/10/2018 23:20 18.9 73 0.0 0 0.0 1.7 6.1 93
11/10/2018 23:30 19.1 72 0.0 0 0.0 2.6 9.4 95
11/10/2018 23:40 19.1 72 0.0 0 0.0 2.6 9.5 90
11/10/2018 23:50 19.0 72 0.0 0 0.0 2.4 8.6 87
Anterior Página 1 de 1 Siguiente

NOTA: Tipo de datos según el color:
   - Valores diarios o 10 minutos correctos
   - Valores diarios calculados a partir de un número de datos 10 minutos menor que 144 y mayor que 120, o de un número de datos semihorarios menor que 48 y mayor que 40 (caso de las estaciones de Riegos de Navarra y del MARM)
   - Valores diez minutos estimados


Contacto        Enlaces        Aviso legal